createdAt,value
2023-04-16T00:00:59.024Z,15.40
2023-04-16T00:01:59.733Z,15.60
2023-04-16T00:03:00.118Z,16.60
2023-04-16T00:04:00.738Z,15.70
2023-04-16T00:05:01.213Z,13.40
2023-04-16T00:06:01.379Z,13.90
2023-04-16T00:07:02.032Z,13.10
2023-04-16T00:08:02.677Z,13.70
2023-04-16T00:09:03.311Z,11.90
2023-04-16T00:10:03.950Z,11.30
2023-04-16T00:11:04.660Z,11.70
2023-04-16T00:12:05.279Z,9.30
2023-04-16T00:13:05.826Z,8.80
2023-04-16T00:14:06.405Z,9.10
2023-04-16T00:15:07.024Z,10.90
2023-04-16T00:16:07.662Z,11.60
2023-04-16T00:17:08.470Z,11.50
2023-04-16T00:18:08.617Z,11.60
2023-04-16T00:19:09.728Z,11.90
2023-04-16T00:20:09.999Z,11.10
2023-04-16T00:21:10.667Z,11.20
2023-04-16T00:22:11.314Z,10.60
2023-04-16T00:23:11.924Z,10.20
2023-04-16T00:24:12.594Z,8.80
2023-04-16T00:25:13.200Z,7.60
2023-04-16T00:26:13.752Z,9.40
2023-04-16T00:27:14.305Z,8.10
2023-04-16T00:28:14.846Z,7.80
2023-04-16T00:29:15.386Z,6.40
2023-04-16T00:30:15.923Z,8.00
2023-04-16T00:31:16.525Z,8.10
2023-04-16T00:32:17.218Z,7.90
2023-04-16T00:33:17.802Z,7.00
2023-04-16T00:34:18.355Z,6.90
2023-04-16T00:35:18.917Z,8.60
2023-04-16T00:36:19.465Z,9.60
2023-04-16T00:37:20.064Z,9.70
2023-04-16T00:38:20.654Z,9.50
2023-04-16T00:39:21.252Z,9.60
2023-04-16T00:40:21.810Z,8.90
2023-04-16T00:41:22.368Z,9.20
2023-04-16T00:42:22.988Z,10.70
2023-04-16T00:43:23.634Z,11.70
2023-04-16T00:44:24.275Z,9.90
2023-04-16T00:45:24.878Z,9.20
2023-04-16T00:46:25.533Z,9.30
2023-04-16T00:47:25.602Z,10.50
2023-04-16T00:48:26.293Z,11.50
2023-04-16T00:49:26.958Z,12.00
2023-04-16T00:50:27.611Z,10.60
2023-04-16T00:51:28.254Z,11.10
2023-04-16T00:52:28.912Z,11.10
2023-04-16T00:53:29.550Z,12.50
2023-04-16T00:54:30.173Z,11.90
2023-04-16T00:55:30.825Z,11.50
2023-04-16T00:56:31.483Z,12.30
2023-04-16T00:57:32.138Z,13.60
2023-04-16T00:58:32.797Z,12.50
2023-04-16T00:59:33.444Z,14.10
2023-04-16T01:00:34.100Z,12.20
2023-04-16T01:01:34.794Z,12.20
2023-04-16T01:02:35.602Z,11.80
2023-04-16T01:03:35.974Z,13.50
2023-04-16T01:05:36.721Z,14.10
2023-04-16T01:06:37.347Z,14.60
2023-04-16T01:07:38.183Z,11.80
2023-04-16T01:08:38.270Z,11.10
2023-04-16T01:09:38.901Z,13.20
2023-04-16T01:10:39.532Z,12.90
2023-04-16T01:11:40.207Z,12.10
2023-04-16T01:12:40.856Z,9.60
2023-04-16T01:13:41.445Z,10.00
2023-04-16T01:14:42.066Z,10.60
2023-04-16T01:15:42.751Z,10.20
2023-04-16T01:16:43.368Z,9.80
2023-04-16T01:17:44.013Z,10.50
2023-04-16T01:18:44.689Z,11.40
2023-04-16T01:19:45.334Z,11.60
2023-04-16T01:20:45.974Z,11.50
2023-04-16T01:21:46.631Z,12.60
2023-04-16T01:22:47.285Z,12.50
2023-04-16T01:23:47.929Z,13.60
2023-04-16T01:24:48.570Z,12.80
2023-04-16T01:25:49.202Z,11.70
2023-04-16T01:26:49.934Z,12.80
2023-04-16T01:27:50.584Z,12.80
2023-04-16T01:28:51.224Z,13.00
2023-04-16T01:29:51.855Z,12.00
2023-04-16T01:30:52.482Z,12.00
2023-04-16T01:31:53.246Z,12.50
2023-04-16T01:32:53.521Z,13.30
2023-04-16T01:33:54.165Z,13.20
2023-04-16T01:34:54.819Z,12.30
2023-04-16T01:35:55.460Z,12.60
2023-04-16T01:36:56.103Z,11.90
2023-04-16T01:37:56.751Z,12.20
2023-04-16T01:38:57.398Z,13.50
2023-04-16T01:39:58.038Z,12.20
2023-04-16T01:40:58.681Z,12.50
2023-04-16T01:41:59.316Z,12.50
2023-04-16T01:42:59.953Z,11.90
2023-04-16T01:44:00.591Z,11.30
2023-04-16T01:45:01.214Z,11.50
2023-04-16T01:46:01.855Z,11.00
2023-04-16T01:47:02.574Z,11.90
2023-04-16T01:48:02.695Z,12.00
2023-04-16T01:49:03.376Z,10.30
2023-04-16T01:50:04.037Z,13.10
2023-04-16T01:51:04.683Z,14.70
2023-04-16T01:52:05.329Z,14.30
2023-04-16T01:53:05.982Z,14.30
2023-04-16T01:54:06.616Z,12.40
2023-04-16T01:55:07.288Z,11.80
2023-04-16T01:56:07.941Z,11.50
2023-04-16T01:57:08.584Z,12.60
2023-04-16T01:58:09.226Z,14.30
2023-04-16T01:59:10.024Z,15.10
2023-04-16T02:00:10.280Z,12.30
2023-04-16T02:01:10.966Z,14.40
2023-04-16T02:02:11.734Z,13.70
2023-04-16T02:03:12.018Z,15.60
2023-04-16T02:04:12.275Z,14.60
2023-04-16T02:05:12.948Z,15.00
2023-04-16T02:06:13.604Z,12.70
2023-04-16T02:07:14.253Z,13.60
2023-04-16T02:08:14.885Z,14.00
2023-04-16T02:09:15.541Z,14.00
2023-04-16T02:10:16.172Z,14.10
2023-04-16T02:11:16.799Z,14.20
2023-04-16T02:12:17.417Z,15.00
2023-04-16T02:13:18.053Z,16.20
2023-04-16T02:14:18.692Z,14.20
2023-04-16T02:15:19.356Z,14.90
2023-04-16T02:16:20.076Z,15.80
2023-04-16T02:17:20.773Z,16.30
2023-04-16T02:18:20.885Z,18.50
2023-04-16T02:19:21.532Z,17.20
2023-04-16T02:20:22.196Z,17.30
2023-04-16T02:21:22.866Z,17.60
2023-04-16T02:22:23.517Z,16.70
2023-04-16T02:23:24.158Z,16.50
2023-04-16T02:24:24.806Z,16.20
2023-04-16T02:25:25.449Z,16.30
2023-04-16T02:26:26.100Z,15.90
2023-04-16T02:27:26.757Z,14.20
2023-04-16T02:28:27.386Z,14.00
2023-04-16T02:29:28.021Z,14.60
2023-04-16T02:30:28.662Z,15.20
2023-04-16T02:31:29.351Z,15.50
2023-04-16T02:32:30.010Z,14.90
2023-04-16T02:33:30.671Z,15.60
2023-04-16T02:34:31.352Z,13.50
2023-04-16T02:35:32.007Z,15.10
2023-04-16T02:36:32.651Z,15.50
2023-04-16T02:37:33.292Z,16.70
2023-04-16T02:38:33.946Z,14.20
2023-04-16T02:39:34.592Z,17.00
2023-04-16T02:40:35.257Z,16.70
2023-04-16T02:41:35.973Z,16.60
2023-04-16T02:42:36.635Z,16.60
2023-04-16T02:43:37.431Z,17.10
2023-04-16T02:44:37.410Z,15.90
2023-04-16T02:45:38.099Z,14.60
2023-04-16T02:46:38.775Z,16.30
2023-04-16T02:47:39.438Z,14.50
2023-04-16T02:48:40.098Z,15.10
2023-04-16T02:49:40.729Z,16.30
2023-04-16T02:50:41.364Z,16.30
2023-04-16T02:51:42.015Z,14.50
2023-04-16T02:52:42.660Z,14.50
2023-04-16T02:53:43.315Z,13.50
2023-04-16T02:54:43.957Z,15.90
2023-04-16T02:55:44.590Z,13.70
2023-04-16T02:56:45.224Z,11.70
2023-04-16T02:57:45.874Z,12.70
2023-04-16T02:58:46.518Z,13.80
2023-04-16T02:59:47.161Z,12.80
2023-04-16T03:00:47.801Z,13.70
2023-04-16T03:01:48.630Z,13.80
2023-04-16T03:02:49.001Z,16.10
2023-04-16T03:03:49.216Z,14.00
2023-04-16T03:04:49.868Z,14.70
2023-04-16T03:05:50.501Z,15.80
2023-04-16T03:06:51.144Z,15.30
2023-04-16T03:07:51.775Z,14.50
2023-04-16T03:08:52.394Z,13.40
2023-04-16T03:09:53.026Z,13.50
2023-04-16T03:10:53.654Z,13.00
2023-04-16T03:11:54.302Z,13.70
2023-04-16T03:12:54.955Z,15.00
2023-04-16T03:13:55.612Z,15.50
2023-04-16T03:14:56.273Z,13.50
2023-04-16T03:15:56.984Z,11.70
2023-04-16T03:16:57.630Z,11.30
2023-04-16T03:17:58.294Z,11.50
2023-04-16T03:18:58.987Z,12.00
2023-04-16T03:19:59.639Z,11.10
2023-04-16T03:21:00.265Z,10.70
2023-04-16T03:22:00.895Z,13.50
2023-04-16T03:23:01.546Z,12.40
2023-04-16T03:24:02.231Z,13.30
2023-04-16T03:25:02.899Z,14.20
2023-04-16T03:26:03.611Z,14.70
2023-04-16T03:27:03.691Z,12.50
2023-04-16T03:28:04.336Z,13.60
2023-04-16T03:29:04.989Z,13.10
2023-04-16T03:30:05.632Z,13.90
2023-04-16T03:31:06.320Z,13.20
2023-04-16T03:32:06.990Z,13.20
2023-04-16T03:33:07.664Z,13.70
2023-04-16T03:34:08.310Z,13.70
2023-04-16T03:35:08.965Z,12.60
2023-04-16T03:36:09.600Z,12.20
2023-04-16T03:37:10.242Z,12.20
2023-04-16T03:38:10.904Z,11.40
2023-04-16T03:39:11.715Z,10.40
2023-04-16T03:40:11.903Z,12.60
2023-04-16T03:41:12.583Z,12.50
2023-04-16T03:42:13.222Z,13.40
2023-04-16T03:43:13.874Z,11.60
2023-04-16T03:44:14.512Z,12.90
2023-04-16T03:45:15.143Z,11.60
2023-04-16T03:46:15.829Z,12.40
2023-04-16T03:47:16.552Z,12.90
2023-04-16T03:48:17.204Z,13.60
2023-04-16T03:49:17.835Z,14.20
2023-04-16T03:50:18.464Z,15.00
2023-04-16T03:51:19.092Z,13.30
2023-04-16T03:52:19.727Z,14.10
2023-04-16T03:53:20.388Z,12.60
2023-04-16T03:54:22.813Z,12.40
2023-04-16T03:55:21.372Z,12.40
2023-04-16T03:56:22.014Z,13.30
2023-04-16T03:57:22.633Z,12.70
2023-04-16T03:58:23.280Z,12.70
2023-04-16T03:59:23.921Z,11.90
2023-04-16T04:00:24.581Z,12.60
2023-04-16T04:01:25.245Z,15.20
2023-04-16T04:02:26.081Z,15.20
2023-04-16T04:03:26.629Z,14.70
2023-04-16T04:04:26.903Z,14.70
2023-04-16T04:05:27.013Z,15.30
2023-04-16T04:06:27.667Z,14.20
2023-04-16T04:07:28.317Z,13.20
2023-04-16T04:08:28.966Z,13.00
2023-04-16T04:09:29.620Z,12.80
2023-04-16T04:10:30.261Z,13.20
2023-04-16T04:11:30.901Z,14.00
2023-04-16T04:12:31.573Z,13.40
2023-04-16T04:13:32.197Z,12.80
2023-04-16T04:14:32.836Z,10.00
2023-04-16T04:15:33.474Z,10.80
2023-04-16T04:16:34.133Z,13.50
2023-04-16T04:17:34.831Z,14.80
2023-04-16T04:18:35.486Z,13.80
2023-04-16T04:19:36.873Z,14.30
2023-04-16T04:20:36.632Z,13.60
2023-04-16T04:21:37.301Z,13.60
2023-04-16T04:22:37.943Z,14.90
2023-04-16T04:23:38.591Z,15.10
2023-04-16T04:24:39.238Z,13.40
2023-04-16T04:25:39.874Z,13.50
2023-04-16T04:26:40.522Z,13.40
2023-04-16T04:27:41.143Z,13.90
2023-04-16T04:28:41.797Z,13.70
2023-04-16T04:29:42.442Z,14.10
2023-04-16T04:30:43.122Z,15.00
2023-04-16T04:31:43.834Z,12.60
2023-04-16T04:32:43.993Z,12.30
2023-04-16T04:33:44.083Z,11.80
2023-04-16T04:34:44.739Z,12.70
2023-04-16T04:35:45.371Z,14.30
2023-04-16T04:36:46.008Z,14.50
2023-04-16T04:37:46.676Z,14.40
2023-04-16T04:38:47.346Z,12.30
2023-04-16T04:39:47.999Z,13.10
2023-04-16T04:40:48.653Z,13.00
2023-04-16T04:41:49.287Z,12.60
2023-04-16T04:42:49.935Z,12.50
2023-04-16T04:43:50.568Z,13.40
2023-04-16T04:44:51.237Z,13.10
2023-04-16T04:45:51.924Z,12.30
2023-04-16T04:46:52.587Z,12.40
2023-04-16T04:47:53.244Z,11.80
2023-04-16T04:48:53.919Z,12.30
2023-04-16T04:49:54.550Z,13.80
2023-04-16T04:50:55.190Z,13.20
2023-04-16T04:51:55.836Z,14.10
2023-04-16T04:52:56.473Z,12.30
2023-04-16T04:53:57.115Z,12.40
2023-04-16T04:54:57.766Z,11.10
2023-04-16T04:56:05.450Z,12.50
2023-04-16T04:56:58.720Z,13.50
2023-04-16T04:57:59.362Z,12.60
2023-04-16T04:59:00.047Z,12.30
2023-04-16T05:00:00.698Z,11.30
2023-04-16T05:01:01.405Z,11.20
2023-04-16T05:02:01.553Z,11.40
2023-04-16T05:03:02.324Z,13.00
2023-04-16T05:04:02.516Z,13.20
2023-04-16T05:05:02.661Z,13.30
2023-04-16T05:06:03.345Z,14.00
2023-04-16T05:07:04.001Z,13.00
2023-04-16T05:08:04.654Z,13.50
2023-04-16T05:09:05.306Z,11.00
2023-04-16T05:10:05.951Z,12.00
2023-04-16T05:11:06.580Z,11.10
2023-04-16T05:12:07.231Z,11.20
2023-04-16T05:13:07.911Z,10.80
2023-04-16T05:14:08.580Z,10.90
2023-04-16T05:15:09.245Z,12.90
2023-04-16T05:16:09.916Z,12.90
2023-04-16T05:17:10.604Z,11.80
2023-04-16T05:18:11.274Z,11.70
2023-04-16T05:19:12.199Z,12.10
2023-04-16T05:20:12.395Z,11.80
2023-04-16T05:21:13.070Z,12.10
2023-04-16T05:22:13.739Z,12.80
2023-04-16T05:23:14.411Z,11.90
2023-04-16T05:24:15.229Z,12.10
2023-04-16T05:25:15.308Z,11.50
2023-04-16T05:26:15.974Z,14.10
2023-04-16T05:27:16.640Z,12.50
2023-04-16T05:28:17.299Z,11.80
2023-04-16T05:29:17.998Z,11.60
2023-04-16T05:30:18.657Z,11.00
2023-04-16T05:31:19.474Z,10.80
2023-04-16T05:32:19.647Z,12.40
2023-04-16T05:33:20.317Z,14.30
2023-04-16T05:34:20.973Z,13.70
2023-04-16T05:35:21.620Z,12.80
2023-04-16T05:36:22.284Z,12.10
2023-04-16T05:37:22.940Z,13.10
2023-04-16T05:38:23.616Z,13.50
2023-04-16T05:39:24.286Z,13.20
2023-04-16T05:40:24.963Z,12.20
2023-04-16T05:41:25.622Z,12.80
2023-04-16T05:42:26.265Z,12.70
2023-04-16T05:43:26.919Z,13.40
2023-04-16T05:44:27.611Z,12.60
2023-04-16T05:45:28.291Z,12.30
2023-04-16T05:46:28.974Z,12.90
2023-04-16T05:47:29.680Z,12.70
2023-04-16T05:48:30.387Z,12.70
2023-04-16T05:49:31.058Z,11.90
2023-04-16T05:50:31.726Z,13.50
2023-04-16T05:51:32.382Z,13.90
2023-04-16T05:52:33.035Z,12.70
2023-04-16T05:53:33.687Z,12.10
2023-04-16T05:54:34.355Z,12.10
2023-04-16T05:55:35.012Z,13.20
2023-04-16T05:56:35.653Z,12.50
2023-04-16T05:57:36.322Z,13.80
2023-04-16T05:58:36.985Z,11.80
2023-04-16T05:59:37.650Z,12.80
2023-04-16T06:00:37.804Z,13.80
2023-04-16T06:01:38.459Z,14.60
2023-04-16T06:02:39.212Z,14.40
2023-04-16T06:03:39.432Z,14.90
2023-04-16T06:04:39.542Z,13.00
2023-04-16T06:05:40.227Z,13.10
2023-04-16T06:06:40.917Z,13.90
2023-04-16T06:07:41.564Z,14.10
2023-04-16T06:08:42.240Z,15.40
2023-04-16T06:09:42.910Z,14.60
2023-04-16T06:10:43.582Z,15.80
2023-04-16T06:11:44.264Z,15.60
2023-04-16T06:12:44.922Z,15.00
2023-04-16T06:13:45.589Z,14.60
2023-04-16T06:14:46.240Z,15.30
2023-04-16T06:15:46.950Z,14.10
2023-04-16T06:16:47.071Z,14.70
2023-04-16T06:17:47.788Z,17.40
2023-04-16T06:18:48.488Z,16.10
2023-04-16T06:19:49.153Z,16.30
2023-04-16T06:20:49.815Z,16.30
2023-04-16T06:21:50.460Z,19.20
2023-04-16T06:22:51.100Z,24.90
2023-04-16T06:23:51.748Z,21.60
2023-04-16T06:24:52.406Z,17.60
2023-04-16T06:25:53.077Z,19.80
2023-04-16T06:26:53.743Z,16.70
2023-04-16T06:27:54.410Z,19.60
2023-04-16T06:28:55.067Z,18.80
2023-04-16T06:29:55.726Z,19.00
2023-04-16T06:30:56.375Z,19.10
2023-04-16T06:31:57.051Z,18.40
2023-04-16T06:32:57.744Z,20.00
2023-04-16T06:33:58.405Z,19.30
2023-04-16T06:34:59.057Z,19.50
2023-04-16T06:35:59.713Z,19.30
2023-04-16T06:37:00.361Z,18.30
2023-04-16T06:38:00.995Z,17.30
2023-04-16T06:39:01.632Z,16.60
2023-04-16T06:40:02.303Z,15.10
2023-04-16T06:41:02.970Z,15.50
2023-04-16T06:42:03.616Z,15.50
2023-04-16T06:43:04.269Z,16.40
2023-04-16T06:44:04.932Z,15.90
2023-04-16T06:45:05.587Z,15.50
2023-04-16T06:46:06.247Z,16.90
2023-04-16T06:47:06.932Z,16.70
2023-04-16T06:48:07.128Z,17.20
2023-04-16T06:49:07.877Z,16.40
2023-04-16T06:50:08.001Z,16.70
2023-04-16T06:51:08.669Z,17.80
2023-04-16T06:52:09.318Z,16.50
2023-04-16T06:53:09.976Z,17.40
2023-04-16T06:54:10.618Z,16.80
2023-04-16T06:55:11.256Z,17.30
2023-04-16T06:56:11.904Z,15.70
2023-04-16T06:57:12.557Z,15.30
2023-04-16T06:58:13.240Z,15.70
2023-04-16T06:59:13.895Z,15.40
2023-04-16T07:00:14.574Z,14.50
2023-04-16T07:01:15.287Z,16.00
2023-04-16T07:02:16.078Z,15.60
2023-04-16T07:03:16.360Z,15.00
2023-04-16T07:04:16.643Z,16.10
2023-04-16T07:05:16.777Z,17.70
2023-04-16T07:06:17.433Z,16.20
2023-04-16T07:07:18.107Z,16.70
2023-04-16T07:08:18.746Z,17.40
2023-04-16T07:09:19.398Z,18.10
2023-04-16T07:10:20.049Z,17.20
2023-04-16T07:11:20.686Z,19.10
2023-04-16T07:12:22.646Z,19.90
2023-04-16T07:13:21.892Z,18.80
2023-04-16T07:14:22.558Z,19.50
2023-04-16T07:15:23.210Z,20.00
2023-04-16T07:16:23.877Z,18.80
2023-04-16T07:17:24.624Z,18.50
2023-04-16T07:18:25.274Z,17.50
2023-04-16T07:19:25.916Z,16.30
2023-04-16T07:20:26.557Z,19.20
2023-04-16T07:21:27.233Z,19.30
2023-04-16T07:22:27.893Z,19.80
2023-04-16T07:23:28.545Z,20.00
2023-04-16T07:24:29.202Z,20.10
2023-04-16T07:25:29.856Z,20.70
2023-04-16T07:26:30.536Z,19.10
2023-04-16T07:27:31.200Z,19.10
2023-04-16T07:28:31.840Z,17.60
2023-04-16T07:29:32.496Z,17.50
2023-04-16T07:30:33.153Z,16.70
2023-04-16T07:31:33.812Z,16.20
2023-04-16T07:32:34.525Z,17.00
2023-04-16T07:33:35.206Z,18.30
2023-04-16T07:34:35.875Z,19.10
2023-04-16T07:35:36.545Z,18.50
2023-04-16T07:36:37.211Z,19.30
2023-04-16T07:37:37.862Z,19.40
2023-04-16T07:38:38.556Z,20.30
2023-04-16T07:39:39.222Z,19.00
2023-04-16T07:40:39.879Z,19.10
2023-04-16T07:41:40.549Z,21.60
2023-04-16T07:42:41.258Z,20.30
2023-04-16T07:43:41.931Z,20.80
2023-04-16T07:44:42.621Z,20.50
2023-04-16T07:45:43.300Z,23.00
2023-04-16T07:46:47.413Z,21.40
2023-04-16T07:47:44.378Z,23.90
2023-04-16T07:48:45.040Z,-1.00
2023-04-16T07:49:45.699Z,22.70
2023-04-16T07:50:46.352Z,23.50
2023-04-16T07:51:47.022Z,23.00
2023-04-16T07:52:47.691Z,23.20
2023-04-16T07:53:48.353Z,24.60
2023-04-16T07:54:48.992Z,23.30
2023-04-16T07:55:49.641Z,24.70
2023-04-16T07:56:50.281Z,24.30
2023-04-16T07:57:50.914Z,23.60
2023-04-16T07:58:51.564Z,25.90
2023-04-16T07:59:52.232Z,25.20
2023-04-16T08:00:52.872Z,24.80
2023-04-16T08:01:53.524Z,24.50
2023-04-16T08:02:54.385Z,25.90
2023-04-16T08:03:54.640Z,24.90
2023-04-16T08:04:54.869Z,23.10
2023-04-16T08:05:54.997Z,25.80
2023-04-16T08:06:55.732Z,24.90
2023-04-16T08:07:55.842Z,23.90
2023-04-16T08:08:56.487Z,25.70
2023-04-16T08:09:57.147Z,25.60
2023-04-16T08:10:57.802Z,24.80
2023-04-16T08:11:58.444Z,23.00
2023-04-16T08:12:59.106Z,28.30
2023-04-16T08:13:59.763Z,26.20
2023-04-16T08:15:00.418Z,26.40
2023-04-16T08:16:01.105Z,24.40
2023-04-16T08:17:01.777Z,24.60
2023-04-16T08:18:02.501Z,24.10
2023-04-16T08:19:02.603Z,23.20
2023-04-16T08:20:03.261Z,24.20
2023-04-16T08:21:03.905Z,26.50
2023-04-16T08:22:04.573Z,30.30
2023-04-16T08:23:05.243Z,24.50
2023-04-16T08:24:05.911Z,26.20
2023-04-16T08:25:06.557Z,26.30
2023-04-16T08:26:07.204Z,25.20
2023-04-16T08:27:17.741Z,22.80
2023-04-16T08:28:08.211Z,22.50
2023-04-16T08:29:09.156Z,24.00
2023-04-16T08:30:09.405Z,23.70
2023-04-16T08:31:10.135Z,23.00
2023-04-16T08:32:10.225Z,21.70
2023-04-16T08:33:10.888Z,21.50
2023-04-16T08:34:11.573Z,20.10
2023-04-16T08:35:12.221Z,21.40
2023-04-16T08:36:12.898Z,20.00
2023-04-16T08:37:13.539Z,21.00
2023-04-16T08:38:14.241Z,19.70
2023-04-16T08:39:14.894Z,19.40
2023-04-16T08:40:15.521Z,22.50
2023-04-16T08:41:16.174Z,20.80
2023-04-16T08:42:16.818Z,22.40
2023-04-16T08:43:17.450Z,22.30
2023-04-16T08:44:18.099Z,21.40
2023-04-16T08:45:18.752Z,22.30
2023-04-16T08:46:19.438Z,22.20
2023-04-16T08:47:19.598Z,21.30
2023-04-16T08:48:19.719Z,25.40
2023-04-16T08:49:20.369Z,24.00
2023-04-16T08:50:21.032Z,23.30
2023-04-16T08:51:21.698Z,22.40
2023-04-16T08:52:22.385Z,22.80
2023-04-16T08:53:22.605Z,21.60
2023-04-16T08:54:22.837Z,22.60
2023-04-16T08:55:23.496Z,22.00
2023-04-16T08:56:24.143Z,22.30
2023-04-16T08:57:24.798Z,21.70
2023-04-16T08:58:25.443Z,21.70
2023-04-16T08:59:26.087Z,20.40
2023-04-16T09:00:26.738Z,19.40
2023-04-16T09:01:27.424Z,20.60
2023-04-16T09:02:28.269Z,22.00
2023-04-16T09:03:28.603Z,21.90
2023-04-16T09:04:28.825Z,23.10
2023-04-16T09:05:28.974Z,22.20
2023-04-16T09:06:29.637Z,22.60
2023-04-16T09:07:30.269Z,21.10
2023-04-16T09:08:30.924Z,19.20
2023-04-16T09:09:33.410Z,22.20
2023-04-16T09:10:32.195Z,18.70
2023-04-16T09:11:32.821Z,20.40
2023-04-16T09:12:33.470Z,21.50
2023-04-16T09:13:34.134Z,19.40
2023-04-16T09:14:34.772Z,20.90
2023-04-16T09:15:35.442Z,19.20
2023-04-16T09:16:36.188Z,20.80
2023-04-16T09:17:36.309Z,18.90
2023-04-16T09:18:36.964Z,18.90
2023-04-16T09:19:37.592Z,20.10
2023-04-16T09:20:38.221Z,21.50
2023-04-16T09:21:38.852Z,21.40
2023-04-16T09:22:39.479Z,22.30
2023-04-16T09:23:40.174Z,25.40
2023-04-16T09:24:40.802Z,25.20
2023-04-16T09:25:41.418Z,33.50
2023-04-16T09:26:42.076Z,27.30
2023-04-16T09:27:42.715Z,22.30
2023-04-16T09:28:43.349Z,21.60
2023-04-16T09:29:43.996Z,20.70
2023-04-16T09:30:44.655Z,24.00
2023-04-16T09:31:45.310Z,22.40
2023-04-16T09:32:45.990Z,18.30
2023-04-16T09:33:46.644Z,17.10
2023-04-16T09:34:47.294Z,17.70
2023-04-16T09:35:47.938Z,18.20
2023-04-16T09:36:48.595Z,20.30
2023-04-16T09:37:49.257Z,19.80
2023-04-16T09:38:49.981Z,19.40
2023-04-16T09:39:50.613Z,22.00
2023-04-16T09:40:51.251Z,22.40
2023-04-16T09:41:51.872Z,22.20
2023-04-16T09:42:52.497Z,22.10
2023-04-16T09:43:53.140Z,18.80
2023-04-16T09:44:53.765Z,18.20
2023-04-16T09:45:54.422Z,18.80
2023-04-16T09:46:55.065Z,19.10
2023-04-16T09:47:55.732Z,21.90
2023-04-16T09:48:56.415Z,19.90
2023-04-16T09:49:57.041Z,18.60
2023-04-16T09:50:57.679Z,18.00
2023-04-16T09:51:58.311Z,18.70
2023-04-16T09:52:58.938Z,19.60
2023-04-16T09:53:59.568Z,19.70
2023-04-16T09:55:00.198Z,19.00
2023-04-16T09:56:00.851Z,18.90
2023-04-16T09:57:01.549Z,19.30
2023-04-16T09:58:01.802Z,16.90
2023-04-16T09:59:02.067Z,17.20
2023-04-16T10:00:02.071Z,17.00
2023-04-16T10:01:02.830Z,14.80
2023-04-16T10:02:15.619Z,17.70
2023-04-16T10:03:03.433Z,18.60
2023-04-16T10:04:03.655Z,16.40
2023-04-16T10:05:03.736Z,17.40
2023-04-16T10:06:04.383Z,16.90
2023-04-16T10:07:05.059Z,17.80
2023-04-16T10:08:05.700Z,17.90
2023-04-16T10:09:06.355Z,17.40
2023-04-16T10:10:07.004Z,18.10
2023-04-16T10:11:07.668Z,17.30
2023-04-16T10:12:08.323Z,17.10
2023-04-16T10:13:08.991Z,16.90
2023-04-16T10:14:09.651Z,16.00
2023-04-16T10:15:10.323Z,18.40
2023-04-16T10:16:10.995Z,17.90
2023-04-16T10:17:11.706Z,18.70
2023-04-16T10:18:11.896Z,19.40
2023-04-16T10:19:12.232Z,19.10
2023-04-16T10:20:12.545Z,16.40
2023-04-16T10:21:13.192Z,16.80
2023-04-16T10:22:13.845Z,14.80
2023-04-16T10:23:15.522Z,15.80
2023-04-16T10:24:14.989Z,15.90
2023-04-16T10:25:15.614Z,16.10
2023-04-16T10:26:16.258Z,17.50
2023-04-16T10:27:16.893Z,16.90
2023-04-16T10:28:17.521Z,18.30
2023-04-16T10:29:18.142Z,16.60
2023-04-16T10:30:18.763Z,17.30
2023-04-16T10:31:19.533Z,17.30
2023-04-16T10:32:19.693Z,18.10
2023-04-16T10:33:20.340Z,16.60
2023-04-16T10:34:20.985Z,15.90
2023-04-16T10:35:21.645Z,15.90
2023-04-16T10:36:22.322Z,17.10
2023-04-16T10:37:22.988Z,19.90
2023-04-16T10:38:23.689Z,16.90
2023-04-16T10:39:24.367Z,15.80
2023-04-16T10:40:25.043Z,16.90
2023-04-16T10:41:25.702Z,18.50
2023-04-16T10:42:26.340Z,16.10
2023-04-16T10:43:27.013Z,16.70
2023-04-16T10:44:27.671Z,14.80
2023-04-16T10:45:28.305Z,16.90
2023-04-16T10:46:28.950Z,16.20
2023-04-16T10:47:29.648Z,17.20
2023-04-16T10:48:38.538Z,15.30
2023-04-16T10:49:30.024Z,17.40
2023-04-16T10:50:30.642Z,17.20
2023-04-16T10:51:31.276Z,16.90
2023-04-16T10:52:31.931Z,16.50
2023-04-16T10:53:32.544Z,18.20
2023-04-16T10:54:33.181Z,17.10
2023-04-16T10:55:33.819Z,17.60
2023-04-16T10:56:34.458Z,18.60
2023-04-16T10:57:35.089Z,18.70
2023-04-16T10:58:35.715Z,19.60
2023-04-16T10:59:36.354Z,19.80
2023-04-16T11:00:36.999Z,18.30
2023-04-16T11:01:37.859Z,19.00
2023-04-16T11:02:38.383Z,19.30
2023-04-16T11:03:38.761Z,17.60
2023-04-16T11:04:39.085Z,18.90
2023-04-16T11:05:39.352Z,17.50
2023-04-16T11:06:39.984Z,18.00
2023-04-16T11:07:40.617Z,16.70
2023-04-16T11:08:53.327Z,17.10
2023-04-16T11:09:41.602Z,15.80
2023-04-16T11:10:42.256Z,15.20
2023-04-16T11:11:42.908Z,16.30
2023-04-16T11:12:43.558Z,16.90
2023-04-16T11:13:44.218Z,15.60
2023-04-16T11:14:44.879Z,16.60
2023-04-16T11:15:45.554Z,17.30
2023-04-16T11:16:46.199Z,17.60
2023-04-16T11:17:46.870Z,16.60
2023-04-16T11:18:51.484Z,16.80
2023-04-16T11:19:47.200Z,16.20
2023-04-16T11:20:47.848Z,16.20
2023-04-16T11:21:48.492Z,16.40
2023-04-16T11:22:49.173Z,16.30
2023-04-16T11:23:49.878Z,17.70
2023-04-16T11:24:50.522Z,16.90
2023-04-16T11:25:51.148Z,17.40
2023-04-16T11:26:51.779Z,16.90
2023-04-16T11:27:52.406Z,15.80
2023-04-16T11:28:53.053Z,16.80
2023-04-16T11:29:53.701Z,15.90
2023-04-16T11:30:54.363Z,15.60
2023-04-16T11:31:55.077Z,15.50
2023-04-16T11:32:55.323Z,15.90
2023-04-16T11:33:55.430Z,17.60
2023-04-16T11:34:56.085Z,16.70
2023-04-16T11:35:56.747Z,16.40
2023-04-16T11:36:57.387Z,16.50
2023-04-16T11:37:58.032Z,16.00
2023-04-16T11:38:58.667Z,16.30
2023-04-16T11:39:59.332Z,17.80
2023-04-16T11:40:59.997Z,16.30
2023-04-16T11:42:00.703Z,17.00
2023-04-16T11:43:01.373Z,17.70
2023-04-16T11:44:02.010Z,19.70
2023-04-16T11:45:02.642Z,17.50
2023-04-16T11:46:12.937Z,16.70
2023-04-16T11:47:03.618Z,18.10
2023-04-16T11:48:04.349Z,18.40
2023-04-16T11:49:04.988Z,17.40
2023-04-16T11:50:05.645Z,18.50
2023-04-16T11:51:06.300Z,18.10
2023-04-16T11:52:06.943Z,16.20
2023-04-16T11:53:07.587Z,16.70
2023-04-16T11:54:11.159Z,17.20
2023-04-16T11:55:08.482Z,16.70
2023-04-16T11:56:09.124Z,17.10
2023-04-16T11:57:09.761Z,18.20
2023-04-16T11:58:10.414Z,17.90
2023-04-16T11:59:11.497Z,19.20
2023-04-16T12:00:12.186Z,18.60
2023-04-16T12:01:11.656Z,18.10
2023-04-16T12:02:12.368Z,18.30
2023-04-16T12:03:12.690Z,18.10
2023-04-16T12:04:12.972Z,17.80
2023-04-16T12:05:13.262Z,-1.00
2023-04-16T12:06:13.348Z,18.50
2023-04-16T12:07:13.998Z,18.60
2023-04-16T12:08:14.661Z,20.30
2023-04-16T12:09:15.300Z,18.60
2023-04-16T12:10:15.968Z,21.60
2023-04-16T12:11:16.631Z,19.70
2023-04-16T12:12:17.291Z,18.70
2023-04-16T12:13:17.970Z,19.10
2023-04-16T12:14:18.636Z,17.90
2023-04-16T12:15:19.290Z,18.50
2023-04-16T12:16:20.003Z,17.90
2023-04-16T12:17:20.661Z,19.20
2023-04-16T12:18:21.292Z,17.80
2023-04-16T12:19:21.944Z,19.70
2023-04-16T12:20:22.609Z,18.30
2023-04-16T12:21:23.264Z,17.30
2023-04-16T12:22:23.906Z,18.50
2023-04-16T12:23:24.539Z,17.90
2023-04-16T12:24:25.178Z,18.60
2023-04-16T12:25:25.822Z,19.20
2023-04-16T12:26:26.453Z,19.20
2023-04-16T12:27:27.079Z,19.00
2023-04-16T12:28:27.714Z,18.60
2023-04-16T12:29:28.355Z,17.40
2023-04-16T12:30:29.000Z,17.90
2023-04-16T12:31:29.658Z,18.80
2023-04-16T12:32:30.319Z,16.80
2023-04-16T12:33:31.001Z,16.90
2023-04-16T12:34:49.447Z,18.30
2023-04-16T12:35:31.973Z,17.30
2023-04-16T12:36:32.611Z,17.40
2023-04-16T12:37:33.265Z,18.20
2023-04-16T12:38:33.912Z,17.00
2023-04-16T12:39:34.565Z,16.40
2023-04-16T12:40:35.219Z,17.20
2023-04-16T12:41:35.878Z,17.30
2023-04-16T12:42:36.529Z,15.40
2023-04-16T12:43:37.182Z,15.70
2023-04-16T12:44:37.854Z,15.90
2023-04-16T12:45:38.516Z,16.10
2023-04-16T12:46:39.191Z,14.80
2023-04-16T12:47:39.346Z,15.90
2023-04-16T12:48:39.426Z,15.80
2023-04-16T12:49:40.078Z,16.20
2023-04-16T12:50:40.723Z,16.40
2023-04-16T12:51:41.369Z,16.00
2023-04-16T12:52:42.015Z,15.10
2023-04-16T12:53:42.667Z,15.10
2023-04-16T12:54:43.370Z,14.70
2023-04-16T12:55:44.028Z,15.60
2023-04-16T12:56:44.674Z,14.70
2023-04-16T12:57:45.396Z,15.30
2023-04-16T12:58:46.056Z,13.70
2023-04-16T12:59:46.693Z,12.80
2023-04-16T13:00:47.360Z,13.70
2023-04-16T13:01:48.052Z,13.30
2023-04-16T13:02:48.846Z,11.90